Ashland, Kentucky
Current Conditions -  °F | °C
As of 5:35 AM on Sunday 26 Oct 2014 (Local Time) from KDWU Reporting Station
Broken Clouds Broken Clouds  
Wind Chill: 46°   Ceiling: 200
Heat Index: 46°   Visibility: 1.2mi
Dew Point: 43°   Wind: 0mph
Humidity: 87%   Direction: NA
Pressure: 29.93"   Gusts: NA
Location:  38.48°N, 82.64°W
Report Text: KDWU 260935Z AUTO 00000KT 1 1/4SM BKN002 08/06 A2993 RMK AO1
Loading
Personal Weather Stations






























Interactive Weather Map New forecast layout! Learn more

10-Day Weather Forecast

Advertisements
Track Severe Weather on mobile